sensor_id;sensor_type;location;lat;lon;timestamp;P1;durP1;ratioP1;P2;durP2;ratioP2
71777;SDS011;59609;52.430;4.668;2023-05-10T00:01:39;31.65;;;16.30;;
71777;SDS011;59609;52.430;4.668;2023-05-10T00:04:05;25.45;;;16.17;;
71777;SDS011;59609;52.430;4.668;2023-05-10T00:06:30;27.55;;;16.05;;
71777;SDS011;59609;52.430;4.668;2023-05-10T00:08:56;28.60;;;15.90;;
71777;SDS011;59609;52.430;4.668;2023-05-10T00:11:22;31.77;;;15.88;;
71777;SDS011;59609;52.430;4.668;2023-05-10T00:13:47;29.30;;;16.38;;
71777;SDS011;59609;52.430;4.668;2023-05-10T00:16:12;31.85;;;17.00;;
71777;SDS011;59609;52.430;4.668;2023-05-10T00:18:38;30.70;;;16.13;;
71777;SDS011;59609;52.430;4.668;2023-05-10T00:21:04;28.60;;;15.73;;
71777;SDS011;59609;52.430;4.668;2023-05-10T00:23:30;30.85;;;16.10;;
71777;SDS011;59609;52.430;4.668;2023-05-10T00:25:55;31.67;;;16.00;;
71777;SDS011;59609;52.430;4.668;2023-05-10T00:28:21;32.78;;;17.10;;
71777;SDS011;59609;52.430;4.668;2023-05-10T00:30:46;25.35;;;15.02;;
71777;SDS011;59609;52.430;4.668;2023-05-10T00:33:12;27.05;;;15.88;;
71777;SDS011;59609;52.430;4.668;2023-05-10T00:35:37;27.67;;;15.38;;
71777;SDS011;59609;52.430;4.668;2023-05-10T00:38:03;30.27;;;14.63;;
71777;SDS011;59609;52.430;4.668;2023-05-10T00:40:28;33.90;;;16.70;;
71777;SDS011;59609;52.430;4.668;2023-05-10T00:42:55;29.10;;;15.25;;
71777;SDS011;59609;52.430;4.668;2023-05-10T00:45:21;28.02;;;16.25;;
71777;SDS011;59609;52.430;4.668;2023-05-10T00:47:47;30.75;;;16.60;;
71777;SDS011;59609;52.430;4.668;2023-05-10T00:50:12;31.10;;;17.10;;
71777;SDS011;59609;52.430;4.668;2023-05-10T00:52:39;28.98;;;16.23;;
71777;SDS011;59609;52.430;4.668;2023-05-10T00:55:04;28.30;;;15.77;;
71777;SDS011;59609;52.430;4.668;2023-05-10T00:57:31;28.00;;;15.32;;
71777;SDS011;59609;52.430;4.668;2023-05-10T00:59:57;32.17;;;16.25;;
71777;SDS011;59609;52.430;4.668;2023-05-10T01:02:22;32.38;;;16.25;;
71777;SDS011;59609;52.430;4.668;2023-05-10T01:04:49;33.47;;;17.10;;
71777;SDS011;59609;52.430;4.668;2023-05-10T01:07:14;29.55;;;17.08;;
71777;SDS011;59609;52.430;4.668;2023-05-10T01:09:40;32.47;;;17.33;;
71777;SDS011;59609;52.430;4.668;2023-05-10T01:12:05;28.80;;;15.40;;
71777;SDS011;59609;52.430;4.668;2023-05-10T01:14:32;33.47;;;16.77;;
71777;SDS011;59609;52.430;4.668;2023-05-10T01:16:58;29.48;;;15.88;;
71777;SDS011;59609;52.430;4.668;2023-05-10T01:19:26;29.00;;;16.38;;
71777;SDS011;59609;52.430;4.668;2023-05-10T01:22:06;28.77;;;16.90;;
71777;SDS011;59609;52.430;4.668;2023-05-10T01:27:37;33.58;;;17.92;;
71777;SDS011;59609;52.430;4.668;2023-05-10T01:47:20;31.15;;;12.55;;
71777;SDS011;59609;52.430;4.668;2023-05-10T01:49:49;29.98;;;11.25;;
71777;SDS011;59609;52.430;4.668;2023-05-10T01:52:18;34.65;;;11.70;;
71777;SDS011;59609;52.430;4.668;2023-05-10T01:54:52;34.53;;;12.18;;
71777;SDS011;59609;52.430;4.668;2023-05-10T01:57:21;30.15;;;11.85;;
71777;SDS011;59609;52.430;4.668;2023-05-10T01:59:50;42.35;;;14.10;;
71777;SDS011;59609;52.430;4.668;2023-05-10T02:02:20;36.90;;;11.57;;
71777;SDS011;59609;52.430;4.668;2023-05-10T02:04:49;28.75;;;11.63;;
71777;SDS011;59609;52.430;4.668;2023-05-10T02:07:16;41.08;;;13.38;;
71777;SDS011;59609;52.430;4.668;2023-05-10T02:09:43;39.97;;;13.32;;
71777;SDS011;59609;52.430;4.668;2023-05-10T02:12:13;28.33;;;8.63;;
71777;SDS011;59609;52.430;4.668;2023-05-10T02:14:40;30.73;;;9.23;;
71777;SDS011;59609;52.430;4.668;2023-05-10T02:17:07;25.60;;;7.88;;
71777;SDS011;59609;52.430;4.668;2023-05-10T02:19:33;30.70;;;9.30;;
71777;SDS011;59609;52.430;4.668;2023-05-10T02:22:00;33.55;;;8.23;;
71777;SDS011;59609;52.430;4.668;2023-05-10T02:24:28;24.73;;;8.38;;
71777;SDS011;59609;52.430;4.668;2023-05-10T02:26:54;22.33;;;7.10;;
71777;SDS011;59609;52.430;4.668;2023-05-10T02:29:22;19.45;;;6.57;;
71777;SDS011;59609;52.430;4.668;2023-05-10T02:31:49;23.40;;;6.50;;
71777;SDS011;59609;52.430;4.668;2023-05-10T02:34:17;21.00;;;6.72;;
71777;SDS011;59609;52.430;4.668;2023-05-10T02:36:44;15.90;;;6.50;;
71777;SDS011;59609;52.430;4.668;2023-05-10T02:39:09;19.30;;;7.25;;
71777;SDS011;59609;52.430;4.668;2023-05-10T02:41:38;14.95;;;7.05;;
71777;SDS011;59609;52.430;4.668;2023-05-10T02:44:06;16.10;;;7.43;;
71777;SDS011;59609;52.430;4.668;2023-05-10T02:49:00;16.58;;;7.50;;
71777;SDS011;59609;52.430;4.668;2023-05-10T02:51:27;19.13;;;8.32;;
71777;SDS011;59609;52.430;4.668;2023-05-10T02:53:56;16.65;;;7.97;;
71777;SDS011;59609;52.430;4.668;2023-05-10T02:56:25;18.20;;;8.45;;
71777;SDS011;59609;52.430;4.668;2023-05-10T02:58:56;17.05;;;8.00;;
71777;SDS011;59609;52.430;4.668;2023-05-10T03:01:22;20.23;;;8.25;;
71777;SDS011;59609;52.430;4.668;2023-05-10T03:03:47;16.88;;;7.57;;
71777;SDS011;59609;52.430;4.668;2023-05-10T03:06:13;18.08;;;8.57;;
71777;SDS011;59609;52.430;4.668;2023-05-10T03:08:38;15.38;;;7.50;;
71777;SDS011;59609;52.430;4.668;2023-05-10T03:19:48;17.20;;;8.07;;
71777;SDS011;59609;52.430;4.668;2023-05-10T03:24:59;19.35;;;8.27;;
71777;SDS011;59609;52.430;4.668;2023-05-10T03:27:30;17.90;;;8.20;;
71777;SDS011;59609;52.430;4.668;2023-05-10T03:29:56;18.77;;;8.45;;
71777;SDS011;59609;52.430;4.668;2023-05-10T03:32:22;17.20;;;7.63;;
71777;SDS011;59609;52.430;4.668;2023-05-10T03:34:48;20.27;;;7.65;;
71777;SDS011;59609;52.430;4.668;2023-05-10T03:37:14;18.45;;;7.45;;
71777;SDS011;59609;52.430;4.668;2023-05-10T03:39:39;17.48;;;6.93;;
71777;SDS011;59609;52.430;4.668;2023-05-10T03:42:04;16.02;;;7.65;;
71777;SDS011;59609;52.430;4.668;2023-05-10T03:44:30;18.08;;;7.85;;
71777;SDS011;59609;52.430;4.668;2023-05-10T03:46:58;17.58;;;7.57;;
71777;SDS011;59609;52.430;4.668;2023-05-10T03:49:23;18.23;;;7.18;;
71777;SDS011;59609;52.430;4.668;2023-05-10T03:51:48;22.90;;;8.63;;
71777;SDS011;59609;52.430;4.668;2023-05-10T03:54:14;20.20;;;8.55;;
71777;SDS011;59609;52.430;4.668;2023-05-10T03:56:39;19.25;;;7.97;;
71777;SDS011;59609;52.430;4.668;2023-05-10T03:59:05;14.45;;;7.68;;
71777;SDS011;59609;52.430;4.668;2023-05-10T04:01:32;19.70;;;8.98;;
71777;SDS011;59609;52.430;4.668;2023-05-10T04:04:00;17.15;;;7.60;;
71777;SDS011;59609;52.430;4.668;2023-05-10T04:06:25;15.75;;;7.72;;
71777;SDS011;59609;52.430;4.668;2023-05-10T04:08:50;18.33;;;8.40;;
71777;SDS011;59609;52.430;4.668;2023-05-10T04:11:16;21.48;;;9.52;;
71777;SDS011;59609;52.430;4.668;2023-05-10T04:13:41;19.23;;;8.20;;
71777;SDS011;59609;52.430;4.668;2023-05-10T04:16:08;17.80;;;8.52;;
71777;SDS011;59609;52.430;4.668;2023-05-10T04:18:33;23.02;;;9.07;;
71777;SDS011;59609;52.430;4.668;2023-05-10T04:20:59;20.58;;;8.45;;
71777;SDS011;59609;52.430;4.668;2023-05-10T04:23:25;19.10;;;8.25;;
71777;SDS011;59609;52.430;4.668;2023-05-10T04:25:50;21.35;;;9.52;;
71777;SDS011;59609;52.430;4.668;2023-05-10T04:28:15;20.73;;;8.23;;
71777;SDS011;59609;52.430;4.668;2023-05-10T04:30:41;22.42;;;9.80;;
71777;SDS011;59609;52.430;4.668;2023-05-10T04:33:06;23.52;;;9.77;;
71777;SDS011;59609;52.430;4.668;2023-05-10T04:35:31;21.23;;;9.25;;
71777;SDS011;59609;52.430;4.668;2023-05-10T04:37:57;21.58;;;9.98;;
71777;SDS011;59609;52.430;4.668;2023-05-10T04:40:22;18.10;;;8.35;;
71777;SDS011;59609;52.430;4.668;2023-05-10T04:42:47;18.98;;;8.88;;
71777;SDS011;59609;52.430;4.668;2023-05-10T04:45:13;19.92;;;9.32;;
71777;SDS011;59609;52.430;4.668;2023-05-10T04:47:41;23.98;;;9.40;;
71777;SDS011;59609;52.430;4.668;2023-05-10T04:50:07;16.73;;;8.38;;
71777;SDS011;59609;52.430;4.668;2023-05-10T04:52:32;18.02;;;8.48;;
71777;SDS011;59609;52.430;4.668;2023-05-10T04:54:58;17.35;;;7.70;;
71777;SDS011;59609;52.430;4.668;2023-05-10T04:57:23;18.65;;;7.80;;
71777;SDS011;59609;52.430;4.668;2023-05-10T04:59:48;17.70;;;8.10;;
71777;SDS011;59609;52.430;4.668;2023-05-10T05:02:14;16.92;;;7.68;;
71777;SDS011;59609;52.430;4.668;2023-05-10T05:04:39;17.45;;;8.07;;
71777;SDS011;59609;52.430;4.668;2023-05-10T05:07:04;17.80;;;8.57;;
71777;SDS011;59609;52.430;4.668;2023-05-10T05:09:30;16.40;;;8.07;;
71777;SDS011;59609;52.430;4.668;2023-05-10T05:11:57;16.67;;;7.63;;
71777;SDS011;59609;52.430;4.668;2023-05-10T05:14:22;14.35;;;7.72;;
71777;SDS011;59609;52.430;4.668;2023-05-10T05:16:50;15.02;;;7.78;;
71777;SDS011;59609;52.430;4.668;2023-05-10T05:19:15;14.70;;;7.35;;
71777;SDS011;59609;52.430;4.668;2023-05-10T05:21:41;17.58;;;8.45;;
71777;SDS011;59609;52.430;4.668;2023-05-10T05:24:06;15.48;;;7.57;;
71777;SDS011;59609;52.430;4.668;2023-05-10T05:26:32;16.42;;;8.20;;
71777;SDS011;59609;52.430;4.668;2023-05-10T05:28:58;16.98;;;8.13;;
71777;SDS011;59609;52.430;4.668;2023-05-10T05:31:23;17.17;;;7.95;;
71777;SDS011;59609;52.430;4.668;2023-05-10T05:33:48;19.85;;;7.55;;
71777;SDS011;59609;52.430;4.668;2023-05-10T05:36:14;15.25;;;7.20;;
71777;SDS011;59609;52.430;4.668;2023-05-10T05:38:39;14.40;;;7.35;;
71777;SDS011;59609;52.430;4.668;2023-05-10T05:41:05;14.43;;;6.95;;
71777;SDS011;59609;52.430;4.668;2023-05-10T05:43:30;14.73;;;7.53;;
71777;SDS011;59609;52.430;4.668;2023-05-10T05:45:55;15.50;;;7.22;;
71777;SDS011;59609;52.430;4.668;2023-05-10T05:48:22;14.25;;;7.15;;
71777;SDS011;59609;52.430;4.668;2023-05-10T05:50:48;14.73;;;7.10;;
71777;SDS011;59609;52.430;4.668;2023-05-10T05:53:13;16.98;;;7.18;;
71777;SDS011;59609;52.430;4.668;2023-05-10T05:55:39;13.73;;;6.93;;
71777;SDS011;59609;52.430;4.668;2023-05-10T05:58:04;14.00;;;7.18;;
71777;SDS011;59609;52.430;4.668;2023-05-10T06:00:29;12.85;;;6.40;;
71777;SDS011;59609;52.430;4.668;2023-05-10T06:02:55;12.50;;;6.75;;
71777;SDS011;59609;52.430;4.668;2023-05-10T06:05:20;11.55;;;6.35;;
71777;SDS011;59609;52.430;4.668;2023-05-10T06:07:45;15.23;;;7.65;;
71777;SDS011;59609;52.430;4.668;2023-05-10T06:10:11;18.15;;;7.28;;
71777;SDS011;59609;52.430;4.668;2023-05-10T06:12:36;14.23;;;7.72;;
71777;SDS011;59609;52.430;4.668;2023-05-10T06:15:02;14.80;;;8.52;;
71777;SDS011;59609;52.430;4.668;2023-05-10T06:17:28;16.08;;;7.90;;
71777;SDS011;59609;52.430;4.668;2023-05-10T06:19:54;13.98;;;7.55;;
71777;SDS011;59609;52.430;4.668;2023-05-10T06:22:19;13.10;;;8.23;;
71777;SDS011;59609;52.430;4.668;2023-05-10T06:24:47;15.27;;;8.25;;
71777;SDS011;59609;52.430;4.668;2023-05-10T06:27:13;14.75;;;7.85;;
71777;SDS011;59609;52.430;4.668;2023-05-10T06:29:38;12.00;;;8.13;;
71777;SDS011;59609;52.430;4.668;2023-05-10T06:32:04;12.70;;;7.80;;
71777;SDS011;59609;52.430;4.668;2023-05-10T06:34:29;14.50;;;8.07;;
71777;SDS011;59609;52.430;4.668;2023-05-10T06:36:54;13.35;;;7.85;;
71777;SDS011;59609;52.430;4.668;2023-05-10T06:39:20;11.52;;;8.40;;
71777;SDS011;59609;52.430;4.668;2023-05-10T06:41:45;14.07;;;7.88;;
71777;SDS011;59609;52.430;4.668;2023-05-10T06:44:10;14.35;;;7.47;;
71777;SDS011;59609;52.430;4.668;2023-05-10T06:46:36;10.88;;;7.30;;
71777;SDS011;59609;52.430;4.668;2023-05-10T06:49:01;9.93;;;7.05;;
71777;SDS011;59609;52.430;4.668;2023-05-10T06:51:27;10.63;;;6.35;;
71777;SDS011;59609;52.430;4.668;2023-05-10T06:53:52;8.90;;;6.57;;
71777;SDS011;59609;52.430;4.668;2023-05-10T06:56:17;8.90;;;6.32;;
71777;SDS011;59609;52.430;4.668;2023-05-10T06:58:43;9.57;;;6.28;;
71777;SDS011;59609;52.430;4.668;2023-05-10T07:01:09;10.68;;;5.97;;
71777;SDS011;59609;52.430;4.668;2023-05-10T07:03:34;8.73;;;5.68;;
71777;SDS011;59609;52.430;4.668;2023-05-10T07:06:03;8.80;;;6.10;;
71777;SDS011;59609;52.430;4.668;2023-05-10T07:08:32;10.10;;;5.72;;
71777;SDS011;59609;52.430;4.668;2023-05-10T07:16:48;10.50;;;6.22;;
71777;SDS011;59609;52.430;4.668;2023-05-10T17:48:21;6.80;;;3.95;;
71777;SDS011;59609;52.430;4.668;2023-05-10T17:50:48;6.95;;;4.10;;
